Time;durP1;ratioP1;P1;durP2;ratioP2;P2;SDS_P1;SDS_P2;PMS_P1;PMS_P2;Temp;Humidity;BMP_temperature;BMP_pressure;BME280_temperature;BME280_humidity;BME280_pressure;Samples;Min_cycle;Max_cycle;Signal;HPM_P1;HPM_P2
2023/01/09 00:01:39;;;;;;;8.75;4.75;;;;;;;6.76;100.00;97148.78;4992693;28;20045;-72
2023/01/09 00:04:04;;;;;;;10.32;5.47;;;;;;;6.72;100.00;97142.19;4986782;28;20022;-70
2023/01/09 00:06:29;;;;;;;9.90;5.00;;;;;;;6.66;100.00;97143.91;4993177;28;20093;-70
2023/01/09 00:08:55;;;;;;;7.90;4.68;;;;;;;6.69;100.00;97142.66;4996005;28;20034;-71
2023/01/09 00:11:20;;;;;;;9.45;5.22;;;;;;;6.69;100.00;97154.22;4985329;28;20064;-72
2023/01/09 00:13:46;;;;;;;10.73;5.53;;;;;;;6.74;100.00;97153.56;4992712;28;20484;-71
2023/01/09 00:16:12;;;;;;;9.57;5.57;;;;;;;6.68;100.00;97140.97;4993354;28;20120;-71
2023/01/09 00:18:37;;;;;;;10.45;5.53;;;;;;;6.72;100.00;97142.19;4999457;28;20109;-71
2023/01/09 00:21:05;;;;;;;7.97;4.75;;;;;;;6.67;100.00;97142.84;4992747;28;20045;-71
2023/01/09 00:23:30;;;;;;;8.25;5.43;;;;;;;6.55;100.00;97125.81;4993151;28;20053;-70
2023/01/09 00:26:11;;;;;;;7.78;5.20;;;;;;;6.61;100.00;97133.00;4993132;28;20468;-71
2023/01/09 00:28:37;;;;;;;8.32;5.35;;;;;;;6.61;100.00;97138.38;4989380;28;20045;-72
2023/01/09 00:31:04;;;;;;;10.63;5.22;;;;;;;6.61;100.00;97137.53;4992511;28;20022;-71
2023/01/09 00:33:37;;;;;;;11.88;5.63;;;;;;;6.56;100.00;97128.25;4988505;28;20538;-73
2023/01/09 00:36:03;;;;;;;10.50;5.35;;;;;;;6.62;100.00;97144.56;4990311;28;20665;-71
2023/01/09 00:38:28;;;;;;;12.23;6.72;;;;;;;6.64;100.00;97135.22;4992489;28;20026;-71
2023/01/09 00:40:55;;;;;;;9.02;6.10;;;;;;;6.67;100.00;97145.53;4992142;28;20018;-71
2023/01/09 00:43:23;;;;;;;8.07;5.35;;;;;;;6.68;100.00;97143.66;4978888;28;20030;-71
2023/01/09 00:45:49;;;;;;;8.63;5.60;;;;;;;6.65;100.00;97142.25;4991907;28;20030;-71
2023/01/09 00:48:25;;;;;;;9.00;5.03;;;;;;;6.63;100.00;97144.34;4992148;28;20026;-71
2023/01/09 00:50:51;;;;;;;9.48;5.78;;;;;;;6.48;100.00;97120.47;4989436;28;20030;-71
2023/01/09 00:53:19;;;;;;;12.95;6.15;;;;;;;6.54;100.00;97129.53;4992794;28;20033;-71
2023/01/09 00:55:44;;;;;;;9.60;6.15;;;;;;;6.54;100.00;97127.66;4992117;28;20029;-71
2023/01/09 00:58:10;;;;;;;12.32;6.32;;;;;;;6.32;100.00;97094.16;4985674;28;20038;-71
2023/01/09 01:00:35;;;;;;;10.20;6.18;;;;;;;6.48;100.00;97127.72;4989129;28;20029;-71
2023/01/09 01:03:01;;;;;;;9.60;6.10;;;;;;;6.26;100.00;97101.22;4991487;28;20022;-71
2023/01/09 01:08:12;;;;;;;9.52;5.20;;;;;;;6.49;100.00;97137.41;4991277;28;20121;-73
2023/01/09 01:10:37;;;;;;;9.38;5.93;;;;;;;6.45;100.00;97120.09;4988072;28;20022;-73
2023/01/09 01:13:02;;;;;;;8.60;5.43;;;;;;;6.46;100.00;97124.44;4991441;28;20053;-70
2023/01/09 01:15:28;;;;;;;11.07;6.03;;;;;;;6.47;100.00;97118.00;4992409;28;20049;-71
2023/01/09 01:17:54;;;;;;;10.60;6.10;;;;;;;6.43;100.00;97116.81;4991780;28;20064;-71
2023/01/09 01:20:19;;;;;;;11.18;5.50;;;;;;;6.46;100.00;97113.69;4974187;28;20503;-71
2023/01/09 01:22:45;;;;;;;7.72;4.93;;;;;;;6.50;100.00;97120.28;4971194;28;20419;-72
2023/01/09 01:25:13;;;;;;;7.60;5.50;;;;;;;6.53;100.00;97106.41;4990720;28;20049;-70
2023/01/09 01:27:38;;;;;;;8.57;5.20;;;;;;;6.48;100.00;97101.69;4986731;28;20080;-71
2023/01/09 01:30:06;;;;;;;10.45;5.18;;;;;;;6.48;100.00;97098.19;4973764;28;20038;-70
2023/01/09 01:32:32;;;;;;;6.65;3.83;;;;;;;6.55;100.00;97098.94;4973892;28;20062;-70
2023/01/09 01:34:57;;;;;;;7.63;3.72;;;;;;;6.60;100.00;97101.78;4993632;28;20053;-72
2023/01/09 01:37:23;;;;;;;5.05;3.15;;;;;;;6.61;100.00;97091.88;4991554;28;20092;-71
2023/01/09 01:39:48;;;;;;;7.10;3.42;;;;;;;6.58;100.00;97093.94;4991436;28;20041;-70
2023/01/09 01:42:14;;;;;;;4.95;2.90;;;;;;;6.59;100.00;97089.38;4986322;28;20081;-71
2023/01/09 01:45:02;;;;;;;6.15;3.67;;;;;;;6.63;100.00;97100.50;4991676;28;20023;-71
2023/01/09 01:47:34;;;;;;;4.43;2.63;;;;;;;6.53;100.00;97083.03;4985064;28;20023;-72
2023/01/09 01:50:03;;;;;;;4.75;3.13;;;;;;;6.57;100.00;97102.22;4986309;28;20049;-72
2023/01/09 01:52:29;;;;;;;;;;;;;;;6.57;100.00;97099.53;4992484;28;20026;-71
2023/01/09 01:54:54;;;;;;;5.60;3.05;;;;;;;6.55;100.00;97099.75;4991720;28;19921;-71
2023/01/09 01:57:20;;;;;;;5.40;3.13;;;;;;;6.41;100.00;97079.41;4995834;28;20034;-72
2023/01/09 01:59:50;;;;;;;4.97;3.17;;;;;;;6.42;100.00;97093.66;5001360;28;20117;-71
2023/01/09 02:02:21;;;;;;;8.57;3.20;;;;;;;6.47;100.00;97091.97;4980443;28;20037;-71
2023/01/09 02:04:50;;;;;;;4.65;2.88;;;;;;;6.44;100.00;97095.09;4998327;28;20022;-71
2023/01/09 02:07:15;;;;;;;5.72;3.38;;;;;;;6.48;100.00;97095.47;4998924;28;20030;-71
2023/01/09 02:09:43;;;;;;;4.43;3.00;;;;;;;6.52;100.00;97107.41;4995606;28;20026;-72
2023/01/09 02:12:22;;;;;;;5.05;3.03;;;;;;;6.52;100.00;97110.09;4995280;28;20030;-71
2023/01/09 02:14:52;;;;;;;6.32;3.33;;;;;;;6.48;100.00;97119.66;4996539;28;20018;-71
2023/01/09 02:17:27;;;;;;;5.20;3.30;;;;;;;6.49;100.00;97110.56;4980454;28;20022;-71
2023/01/09 02:20:22;;;;;;;4.75;3.10;;;;;;;6.38;100.00;97108.59;4979505;28;20515;-72
2023/01/09 02:23:25;;;;;;;6.18;3.33;;;;;;;6.46;100.00;97113.69;4993196;28;20034;-71
2023/01/09 02:26:09;;;;;;;8.68;3.20;;;;;;;6.46;100.00;97113.69;4941486;29;20054;-72
2023/01/09 02:28:57;;;;;;;5.97;2.92;;;;;;;6.35;100.00;97091.03;4972264;28;20042;-71
2023/01/09 02:31:46;;;;;;;4.22;2.22;;;;;;;6.43;100.00;97111.44;4986437;28;20050;-71
2023/01/09 02:34:24;;;;;;;2.97;2.13;;;;;;;6.44;100.00;97097.78;4998951;28;20026;-71
2023/01/09 02:37:07;;;;;;;3.65;2.03;;;;;;;6.40;100.00;97085.03;4996637;28;20018;-71
2023/01/09 02:39:42;;;;;;;3.50;2.17;;;;;;;6.47;100.00;97083.06;4991457;28;20037;-71
2023/01/09 02:42:12;;;;;;;3.40;2.08;;;;;;;6.47;100.00;97075.88;4994019;28;20026;-71
2023/01/09 02:44:41;;;;;;;3.30;1.65;;;;;;;6.42;100.00;97056.03;4977176;28;20093;-71
2023/01/09 02:47:28;;;;;;;2.28;1.55;;;;;;;6.50;100.00;97069.22;4996284;28;20114;-71
2023/01/09 02:50:07;;;;;;;2.10;1.40;;;;;;;6.50;100.00;97078.09;4993769;28;20022;-71
2023/01/09 02:52:48;;;;;;;2.63;1.42;;;;;;;6.46;100.00;97079.56;4996813;28;20443;-73
2023/01/09 02:55:38;;;;;;;3.05;1.67;;;;;;;6.49;100.00;97097.94;4979635;28;20030;-71
2023/01/09 02:58:43;;;;;;;2.25;1.33;;;;;;;6.49;100.00;97091.75;4989069;28;20101;-71
2023/01/09 03:01:26;;;;;;;1.58;1.35;;;;;;;6.43;100.00;97085.38;4995209;28;20092;-70
2023/01/09 03:04:01;;;;;;;2.95;1.30;;;;;;;6.32;100.00;97078.06;4997556;28;20022;-72
2023/01/09 03:06:40;;;;;;;2.17;1.10;;;;;;;6.37;100.00;97088.97;4995932;28;20029;-72
2023/01/09 03:09:12;;;;;;;1.50;1.05;;;;;;;6.43;100.00;97101.50;4992813;28;20411;-71
2023/01/09 03:11:43;;;;;;;1.30;0.90;;;;;;;6.45;100.00;97098.63;4994839;28;20062;-72
2023/01/09 03:14:13;;;;;;;1.77;1.20;;;;;;;6.39;100.00;97096.78;4994090;28;20120;-71
2023/01/09 03:16:39;;;;;;;1.52;1.08;;;;;;;6.40;100.00;97112.69;4998477;28;20030;-71
2023/01/09 03:19:10;;;;;;;0.65;0.63;;;;;;;6.49;100.00;97123.97;4993642;28;20037;-71
2023/01/09 03:21:36;;;;;;;1.67;1.10;;;;;;;6.51;100.00;97129.97;4994825;28;20392;-71
2023/01/09 03:24:02;;;;;;;1.50;0.93;;;;;;;6.49;100.00;97122.13;4992222;28;20030;-71
2023/01/09 03:26:28;;;;;;;2.35;2.15;;;;;;;6.54;100.00;97132.22;4993761;28;20065;-71
2023/01/09 03:28:54;;;;;;;1.25;1.00;;;;;;;6.51;100.00;97119.22;4992106;28;20114;-71
2023/01/09 03:31:20;;;;;;;0.90;0.80;;;;;;;6.52;100.00;97132.44;4976267;28;20101;-71
2023/01/09 03:33:45;;;;;;;1.10;0.70;;;;;;;6.50;100.00;97139.91;4994410;28;20077;-71
2023/01/09 03:36:12;;;;;;;1.13;0.68;;;;;;;6.51;100.00;97133.47;4994124;28;20384;-72
2023/01/09 03:38:38;;;;;;;1.75;0.90;;;;;;;6.49;100.00;97137.41;4993312;28;20574;-72
2023/01/09 03:41:04;;;;;;;2.03;1.08;;;;;;;6.42;100.00;97140.16;4975911;28;20381;-72
2023/01/09 03:43:29;;;;;;;1.10;0.90;;;;;;;6.50;100.00;97155.19;4992580;28;20037;-72
2023/01/09 03:45:55;;;;;;;0.77;0.55;;;;;;;6.54;100.00;97161.75;4976447;28;20412;-72
2023/01/09 03:48:20;;;;;;;3.80;0.70;;;;;;;6.67;100.00;97185.84;4992129;28;20443;-73
2023/01/09 03:50:49;;;;;;;0.80;0.50;;;;;;;6.64;100.00;97197.03;4987868;28;20115;-72
2023/01/09 03:53:16;;;;;;;;;;;;;;;6.65;100.00;97209.44;4993523;28;20030;-72
2023/01/09 03:55:44;;;;;;;2.63;0.30;;;;;;;6.54;100.00;97220.88;4994002;28;19976;-72
2023/01/09 03:58:09;;;;;;;1.55;0.60;;;;;;;6.59;100.00;97234.47;4975130;28;20104;-72
2023/01/09 04:00:35;;;;;;;0.45;0.32;;;;;;;6.54;100.00;97226.25;4992616;28;20468;-75
2023/01/09 04:03:00;;;;;;;0.50;0.30;;;;;;;6.53;100.00;97259.53;4992987;28;20018;-72
2023/01/09 04:05:25;;;;;;;0.90;0.30;;;;;;;6.44;100.00;97258.94;4988669;28;20445;-72
2023/01/09 04:07:50;;;;;;;0.30;0.20;;;;;;;6.36;100.00;97261.88;4994104;28;20022;-72
2023/01/09 04:10:16;;;;;;;0.30;0.20;;;;;;;6.20;100.00;97257.00;4992284;28;20042;-72
2023/01/09 04:12:41;;;;;;;0.32;0.20;;;;;;;6.03;100.00;97262.88;4995567;28;20477;-72
2023/01/09 04:15:07;;;;;;;0.10;0.10;;;;;;;6.01;100.00;97277.53;4994759;28;20534;-71
2023/01/09 04:17:32;;;;;;;0.32;0.15;;;;;;;5.83;100.00;97267.44;4998174;28;20038;-71
2023/01/09 04:19:58;;;;;;;0.65;0.10;;;;;;;5.80;100.00;97268.69;4991767;28;20026;-72
2023/01/09 04:22:24;;;;;;;0.05;0.00;;;;;;;5.70;100.00;97281.72;4986419;28;20030;-71
2023/01/09 04:24:49;;;;;;;0.17;0.03;;;;;;;5.48;100.00;97281.16;4976294;28;20093;-71
2023/01/09 04:27:14;;;;;;;0.35;0.20;;;;;;;5.64;100.00;97317.44;4981194;28;20492;-71
2023/01/09 04:29:39;;;;;;;1.75;0.40;;;;;;;5.57;100.00;97317.44;4985924;28;20019;-72
2023/01/09 04:32:05;;;;;;;0.88;0.20;;;;;;;5.48;100.00;97322.19;4989337;28;20030;-71
2023/01/09 04:34:30;;;;;;;1.48;0.10;;;;;;;5.32;100.00;97286.91;4992571;28;20358;-71
2023/01/09 04:37:00;;;;;;;0.13;0.13;;;;;;;5.44;100.00;97320.94;4997888;28;20029;-81
2023/01/09 04:39:26;;;;;;;1.50;0.30;;;;;;;5.00;100.00;97271.47;5092912;23;20054;-62
2023/01/09 04:41:51;;;;;;;0.03;0.00;;;;;;;5.49;100.00;97347.97;4986656;28;20053;-63
2023/01/09 04:44:25;;;;;;;0.40;0.20;;;;;;;5.43;100.00;97348.81;4997480;28;20074;-62
2023/01/09 04:46:50;;;;;;;0.30;0.10;;;;;;;5.44;100.00;97361.19;4970867;28;20029;-62
2023/01/09 04:49:16;;;;;;;0.50;0.20;;;;;;;5.41;100.00;97366.97;4984415;28;20029;-62
2023/01/09 04:51:41;;;;;;;1.58;0.38;;;;;;;5.36;100.00;97353.34;4974382;28;20054;-60
2023/01/09 04:54:07;;;;;;;0.10;0.10;;;;;;;5.39;100.00;97360.16;4974997;28;20030;-60
2023/01/09 04:56:32;;;;;;;1.88;0.20;;;;;;;5.35;100.00;97372.34;4979761;28;20033;-60
2023/01/09 04:58:57;;;;;;;3.22;0.30;;;;;;;5.33;100.00;97377.91;4980813;28;20018;-61
2023/01/09 05:01:23;;;;;;;0.10;0.08;;;;;;;5.29;100.00;97379.31;4972743;28;20497;-60
2023/01/09 05:03:49;;;;;;;2.15;0.22;;;;;;;5.24;100.00;97373.78;4973354;28;20025;-60
2023/01/09 05:06:14;;;;;;;1.50;0.30;;;;;;;5.21;100.00;97388.41;4992533;28;20105;-62
2023/01/09 05:08:39;;;;;;;1.20;0.30;;;;;;;5.22;100.00;97382.00;4975847;28;20037;-62
2023/01/09 05:11:05;;;;;;;1.38;0.20;;;;;;;5.20;100.00;97391.28;4971571;28;20093;-62
2023/01/09 05:13:30;;;;;;;1.25;0.22;;;;;;;5.23;100.00;97388.19;4975397;28;20077;-62
2023/01/09 05:15:56;;;;;;;0.30;0.20;;;;;;;5.22;100.00;97389.22;4971222;28;20030;-62
2023/01/09 05:18:21;;;;;;;0.10;0.10;;;;;;;5.24;100.00;97387.19;4983929;28;20037;-60
2023/01/09 05:20:46;;;;;;;1.25;0.32;;;;;;;5.21;100.00;97404.50;4975833;28;20029;-60
2023/01/09 05:23:12;;;;;;;1.27;0.30;;;;;;;5.22;100.00;97402.66;4971737;28;20080;-60
2023/01/09 05:25:37;;;;;;;0.98;0.57;;;;;;;5.22;100.00;97405.31;4977740;28;20030;-60
2023/01/09 05:28:03;;;;;;;1.05;0.38;;;;;;;5.23;100.00;97399.75;4992466;28;20022;-62
2023/01/09 05:30:28;;;;;;;2.17;0.35;;;;;;;5.23;100.00;97415.00;4978192;28;20390;-62
2023/01/09 05:32:54;;;;;;;3.08;0.30;;;;;;;5.25;100.00;97431.72;4975987;28;20026;-62
2023/01/09 05:35:20;;;;;;;3.30;0.75;;;;;;;5.20;100.00;97434.19;4976526;28;20031;-62
2023/01/09 05:37:46;;;;;;;0.95;0.25;;;;;;;5.18;100.00;97441.59;4974632;28;20026;-61
2023/01/09 05:40:12;;;;;;;3.45;0.95;;;;;;;5.14;100.00;97440.38;4963871;28;20038;-61
2023/01/09 05:42:38;;;;;;;2.00;0.30;;;;;;;5.20;100.00;97447.59;4972445;28;20031;-61
2023/01/09 05:45:04;;;;;;;0.95;0.30;;;;;;;5.23;100.00;97445.31;4971906;28;20033;-61
2023/01/09 05:47:30;;;;;;;1.98;0.32;;;;;;;5.20;100.00;97440.38;4974222;28;20034;-60
2023/01/09 05:49:56;;;;;;;0.40;0.30;;;;;;;5.17;100.00;97442.63;4974943;28;20029;-61
2023/01/09 05:52:23;;;;;;;2.97;0.68;;;;;;;5.18;100.00;97446.97;4988979;28;20088;-61
2023/01/09 05:54:48;;;;;;;3.30;0.52;;;;;;;5.19;100.00;97445.94;4974829;28;20466;-60
2023/01/09 05:57:13;;;;;;;1.02;0.35;;;;;;;5.20;100.00;97440.38;4975688;28;20030;-61
2023/01/09 05:59:39;;;;;;;2.40;0.50;;;;;;;5.10;100.00;97455.19;4973820;28;20030;-61
2023/01/09 06:02:04;;;;;;;2.40;0.57;;;;;;;5.01;100.00;97452.69;4977427;28;20092;-62
2023/01/09 06:04:29;;;;;;;1.50;0.55;;;;;;;4.96;100.00;97463.19;4985220;28;20057;-61
2023/01/09 06:06:55;;;;;;;2.20;0.60;;;;;;;4.80;100.00;97471.59;4972032;28;20026;-63
2023/01/09 06:09:21;;;;;;;1.27;0.50;;;;;;;4.66;100.00;97477.88;4980833;28;20022;-61
2023/01/09 06:11:46;;;;;;;2.60;0.60;;;;;;;4.61;100.00;97498.06;4973170;28;20026;-61
2023/01/09 06:14:11;;;;;;;5.10;1.05;;;;;;;4.55;100.00;97496.16;4978655;28;20089;-61
2023/01/09 06:16:37;;;;;;;4.70;0.68;;;;;;;4.46;100.00;97509.94;4977068;28;20089;-62
2023/01/09 06:19:02;;;;;;;3.75;0.73;;;;;;;4.44;100.00;97520.00;4978237;28;20023;-61
2023/01/09 06:21:28;;;;;;;2.25;0.50;;;;;;;4.44;100.00;97522.69;4972909;28;20176;-61
2023/01/09 06:23:55;;;;;;;3.60;0.50;;;;;;;4.34;100.00;97515.00;4969017;28;20034;-63
2023/01/09 06:26:20;;;;;;;2.83;0.50;;;;;;;4.33;100.00;97514.16;4973803;28;20225;-61
2023/01/09 06:28:46;;;;;;;3.30;0.60;;;;;;;4.35;100.00;97505.94;4972500;28;20096;-61
2023/01/09 06:31:12;;;;;;;3.30;0.50;;;;;;;4.43;100.00;97502.25;4976444;28;20030;-62
2023/01/09 06:33:37;;;;;;;1.95;0.50;;;;;;;4.44;100.00;97503.94;4973202;28;20465;-61
2023/01/09 06:36:03;;;;;;;1.83;0.43;;;;;;;4.46;100.00;97497.38;4987448;28;20034;-62
2023/01/09 06:38:29;;;;;;;2.40;0.40;;;;;;;4.51;100.00;97492.25;4977149;28;20362;-63
2023/01/09 06:40:54;;;;;;;1.77;0.30;;;;;;;4.50;100.00;97484.41;4967974;28;20054;-64
2023/01/09 06:43:19;;;;;;;2.85;0.50;;;;;;;4.48;100.00;97506.03;4991344;28;20393;-63
2023/01/09 06:45:45;;;;;;;2.80;0.52;;;;;;;4.50;100.00;97503.13;4980141;28;20026;-63
2023/01/09 06:48:10;;;;;;;2.55;0.45;;;;;;;4.55;100.00;97498.03;4980953;28;20026;-64
2023/01/09 06:50:36;;;;;;;1.88;0.40;;;;;;;4.58;100.00;97493.13;4977857;28;20092;-64
2023/01/09 06:53:01;;;;;;;1.58;0.63;;;;;;;4.60;100.00;97491.03;4993204;28;20109;-63
2023/01/09 06:55:27;;;;;;;6.97;1.20;;;;;;;4.57;100.00;97494.13;4984250;28;20027;-63
2023/01/09 06:57:52;;;;;;;2.55;1.23;;;;;;;4.42;100.00;97497.94;5001198;28;20101;-63
2023/01/09 07:00:18;;;;;;;4.43;1.40;;;;;;;4.32;100.00;97507.16;4995977;28;20144;-63
2023/01/09 07:02:43;;;;;;;3.95;1.10;;;;;;;4.34;100.00;97504.28;4994303;28;20022;-63
2023/01/09 07:05:11;;;;;;;1.38;0.85;;;;;;;4.35;100.00;97514.81;4973934;28;20034;-63
2023/01/09 07:07:38;;;;;;;3.38;0.80;;;;;;;4.47;100.00;97503.53;4993753;28;20161;-64
2023/01/09 07:10:04;;;;;;;3.10;1.23;;;;;;;4.57;100.00;97499.47;4983081;28;20022;-64
2023/01/09 07:12:30;;;;;;;2.10;0.73;;;;;;;4.58;100.00;97505.66;4995896;28;20068;-64
2023/01/09 07:14:57;;;;;;;1.45;0.82;;;;;;;4.66;100.00;97518.06;5015980;28;20085;-64
2023/01/09 07:17:22;;;;;;;2.65;0.80;;;;;;;4.65;100.00;97511.06;4983417;28;20030;-64
2023/01/09 07:19:47;;;;;;;2.95;0.80;;;;;;;4.67;100.00;97517.06;4972162;28;20548;-64
2023/01/09 07:22:13;;;;;;;2.92;0.77;;;;;;;4.69;100.00;97517.66;4970702;28;20086;-64
2023/01/09 07:24:38;;;;;;;3.50;0.70;;;;;;;4.77;100.00;97517.53;4970969;28;20022;-63
2023/01/09 07:27:04;;;;;;;2.63;1.13;;;;;;;4.77;100.00;97520.22;4970895;28;20033;-62
2023/01/09 07:29:29;;;;;;;5.22;0.82;;;;;;;4.78;100.00;97519.19;4970250;28;20023;-63
2023/01/09 07:31:55;;;;;;;1.65;0.77;;;;;;;4.82;100.00;97520.41;4975670;28;20466;-64
2023/01/09 07:34:20;;;;;;;4.25;0.82;;;;;;;4.91;100.00;97526.47;4994652;28;20026;-64
2023/01/09 07:36:47;;;;;;;3.78;0.73;;;;;;;4.99;100.00;97532.47;4964853;28;20094;-64
2023/01/09 07:39:13;;;;;;;5.25;1.33;;;;;;;5.01;100.00;97511.66;4976152;28;20030;-64
2023/01/09 07:41:38;;;;;;;2.70;0.80;;;;;;;5.09;100.00;97517.88;4976265;28;20018;-64
2023/01/09 07:44:04;;;;;;;2.50;0.60;;;;;;;5.15;100.00;97511.72;4971970;28;20022;-64
2023/01/09 07:46:29;;;;;;;6.65;1.10;;;;;;;5.20;100.00;97506.59;4989397;28;20711;-64
2023/01/09 07:48:55;;;;;;;5.95;0.85;;;;;;;5.22;100.00;97508.03;4985887;28;20390;-64
2023/01/09 07:51:20;;;;;;;9.88;1.33;;;;;;;5.27;100.00;97510.13;4973328;28;20034;-64
2023/01/09 07:53:46;;;;;;;4.70;1.10;;;;;;;5.29;100.00;97518.75;4986347;28;20085;-62
2023/01/09 07:56:12;;;;;;;4.78;1.20;;;;;;;5.32;100.00;97513.03;4972222;28;20533;-61
2023/01/09 07:58:38;;;;;;;1.52;0.80;;;;;;;5.40;100.00;97533.47;4973256;28;20044;-62
2023/01/09 08:01:03;;;;;;;3.28;1.20;;;;;;;5.43;100.00;97536.56;4967264;28;20027;-62
2023/01/09 08:03:29;;;;;;;4.20;0.90;;;;;;;5.46;100.00;97524.59;4969831;28;20022;-62
2023/01/09 08:05:56;;;;;;;3.88;1.70;;;;;;;5.47;100.00;97531.63;4983106;28;20030;-62
2023/01/09 08:08:22;;;;;;;7.05;1.27;;;;;;;5.55;100.00;97533.28;4986013;28;20037;-62
2023/01/09 08:10:47;;;;;;;1.77;0.80;;;;;;;5.58;100.00;97538.25;4980433;28;20022;-62
2023/01/09 08:13:14;;;;;;;2.58;0.63;;;;;;;5.61;100.00;97538.69;4986440;28;20030;-62
2023/01/09 08:15:39;;;;;;;5.43;0.68;;;;;;;5.70;100.00;97550.88;4969395;28;20030;-61
2023/01/09 08:18:04;;;;;;;3.25;0.75;;;;;;;5.78;100.00;97552.53;4994710;28;20026;-62
2023/01/09 08:20:30;;;;;;;2.72;0.60;;;;;;;5.87;100.00;97542.47;4975662;28;21083;-63
2023/01/09 08:22:56;;;;;;;1.65;0.40;;;;;;;5.87;100.00;97545.97;4981811;28;20034;-62
2023/01/09 08:25:21;;;;;;;2.03;0.50;;;;;;;5.92;100.00;97543.50;4990457;28;20428;-62
2023/01/09 08:27:47;;;;;;;0.93;0.40;;;;;;;5.89;100.00;97535.84;4975561;28;20027;-62
2023/01/09 08:30:13;;;;;;;1.15;0.60;;;;;;;5.96;100.00;97545.78;4976137;28;20018;-62
2023/01/09 08:32:40;;;;;;;2.03;0.45;;;;;;;5.93;100.00;97536.25;4978434;28;20053;-63
2023/01/09 08:35:06;;;;;;;2.45;0.47;;;;;;;6.01;100.00;97546.00;4982277;28;20033;-62
2023/01/09 08:37:31;;;;;;;4.15;0.68;;;;;;;6.01;100.00;97549.50;4986200;28;20038;-62
2023/01/09 08:39:57;;;;;;;4.75;0.55;;;;;;;6.09;100.00;97556.53;4978698;28;20088;-62
2023/01/09 08:47:52;;;;;;;1.42;0.40;;;;;;;6.47;100.00;97542.47;4989263;28;20477;-62
2023/01/09 08:50:17;;;;;;;1.27;0.50;;;;;;;6.49;100.00;97535.88;4985042;28;20022;-61
2023/01/09 08:52:43;;;;;;;4.00;0.82;;;;;;;6.79;100.00;97536.25;4966845;28;20497;-62
2023/01/09 08:55:08;;;;;;;4.88;1.00;;;;;;;6.91;100.00;97549.03;4972347;28;20445;-62
2023/01/09 08:57:34;;;;;;;3.10;0.52;;;;;;;6.98;100.00;97539.09;4958736;28;20062;-62
2023/01/09 08:59:59;;;;;;;0.98;0.43;;;;;;;7.05;100.00;97536.34;4973388;28;20073;-62
2023/01/09 09:02:24;;;;;;;3.20;0.77;;;;;;;7.38;100.00;97538.94;4976798;28;20033;-66
2023/01/09 09:04:52;;;;;;;3.20;0.50;;;;;;;8.54;100.00;97529.66;4977820;28;20030;-66
2023/01/09 09:07:25;;;;;;;3.33;0.60;;;;;;;9.43;100.00;97530.13;4978603;28;20081;-66
2023/01/09 09:09:54;;;;;;;3.10;0.60;;;;;;;8.87;100.00;97532.03;4978049;28;20029;-66
2023/01/09 09:12:20;;;;;;;2.50;0.50;;;;;;;8.16;100.00;97541.34;4975590;28;20473;-66
2023/01/09 09:17:32;;;;;;;3.83;0.63;;;;;;;11.45;100.00;97536.41;4994709;28;20150;-66
2023/01/09 09:19:58;;;;;;;2.92;0.55;;;;;;;12.94;100.00;97537.91;4992102;28;20065;-66
2023/01/09 09:22:25;;;;;;;1.77;0.60;;;;;;;13.84;100.00;97534.16;4975757;28;20447;-64
2023/01/09 09:24:50;;;;;;;1.85;0.45;;;;;;;13.62;98.19;97543.13;4977086;28;20026;-65
2023/01/09 09:27:16;;;;;;;1.30;0.45;;;;;;;14.22;94.85;97549.47;4991866;28;20125;-66
2023/01/09 09:29:41;;;;;;;2.60;0.90;;;;;;;15.80;74.49;97547.03;4976584;28;20054;-65
2023/01/09 09:32:08;;;;;;;2.88;0.70;;;;;;;16.56;66.48;97543.59;4973996;28;20030;-65
2023/01/09 09:34:33;;;;;;;1.88;0.60;;;;;;;15.80;69.21;97544.28;4974009;28;20041;-63
2023/01/09 09:36:59;;;;;;;0.98;0.30;;;;;;;12.16;100.00;97536.13;4975555;28;20482;-63
2023/01/09 09:39:25;;;;;;;2.13;0.60;;;;;;;10.93;100.00;97552.59;4976596;28;20044;-63
2023/01/09 09:45:24;;;;;;;3.42;0.40;;;;;;;10.44;100.00;97546.59;5003069;28;20057;-63
2023/01/09 09:48:36;;;;;;;1.92;0.50;;;;;;;10.61;100.00;97534.03;4992540;28;20048;-63
2023/01/09 09:51:08;;;;;;;3.75;0.43;;;;;;;11.08;100.00;97530.44;4957756;28;20056;-66
2023/01/09 09:53:41;;;;;;;3.08;0.47;;;;;;;10.79;100.00;97538.47;4993219;28;20034;-64
2023/01/09 09:56:13;;;;;;;3.70;0.70;;;;;;;10.64;100.00;97540.84;4977026;28;20022;-64
2023/01/09 09:59:17;;;;;;;3.67;0.47;;;;;;;10.23;100.00;97542.53;4974713;28;20037;-66
2023/01/09 10:01:49;;;;;;;4.93;0.45;;;;;;;9.57;100.00;97547.00;4982830;28;20027;-63
2023/01/09 10:04:18;;;;;;;2.70;0.43;;;;;;;9.39;100.00;97545.16;4994793;28;20022;-64
2023/01/09 10:06:48;;;;;;;2.47;0.43;;;;;;;9.46;100.00;97534.25;4997623;28;20026;-64
2023/01/09 10:09:39;;;;;;;3.83;0.40;;;;;;;9.64;100.00;97532.38;4988871;28;20095;-64
2023/01/09 10:12:38;;;;;;;3.78;0.75;;;;;;;9.60;100.00;97520.38;4976653;28;20061;-64
2023/01/09 10:15:15;;;;;;;1.58;0.20;;;;;;;9.63;100.00;97529.88;4976748;28;20488;-64
2023/01/09 10:18:04;;;;;;;2.47;0.30;;;;;;;9.50;100.00;97530.88;4977048;28;20027;-63
2023/01/09 10:20:37;;;;;;;1.67;0.30;;;;;;;9.49;100.00;97525.72;4980072;28;20018;-63
2023/01/09 10:23:30;;;;;;;2.67;0.50;;;;;;;9.17;100.00;97528.63;4996712;28;20026;-63
2023/01/09 10:26:10;;;;;;;1.63;0.40;;;;;;;8.86;100.00;97522.31;4981372;28;20093;-60
2023/01/09 10:28:44;;;;;;;3.17;0.40;;;;;;;8.84;100.00;97513.63;4975788;28;20496;-60
2023/01/09 10:31:22;;;;;;;3.92;0.38;;;;;;;9.12;100.00;97517.66;4995163;28;20030;-62
2023/01/09 10:34:00;;;;;;;2.15;0.32;;;;;;;9.02;100.00;97509.28;4996417;28;20023;-60
2023/01/09 10:36:58;;;;;;;2.03;0.50;;;;;;;8.96;100.00;97505.59;4987679;28;20030;-60
2023/01/09 10:39:33;;;;;;;2.15;0.52;;;;;;;8.86;100.00;97495.34;4998230;22;20375;-75
2023/01/09 10:42:32;;;;;;;4.55;0.52;;;;;;;8.80;100.00;97490.00;5007488;28;20021;-75
2023/01/09 10:45:04;;;;;;;1.98;0.40;;;;;;;8.86;100.00;97508.00;4998146;28;20479;-75
2023/01/09 10:47:34;;;;;;;3.53;0.52;;;;;;;8.80;100.00;97507.00;4992565;28;20125;-76
2023/01/09 10:50:06;;;;;;;3.58;1.02;;;;;;;8.63;100.00;97477.13;4994481;28;20137;-75
2023/01/09 10:52:40;;;;;;;2.05;0.63;;;;;;;8.92;100.00;97486.34;5000623;28;20022;-75
2023/01/09 10:55:24;;;;;;;4.28;0.60;;;;;;;9.02;100.00;97491.22;5013943;28;20108;-75
2023/01/09 10:57:56;;;;;;;2.08;0.40;;;;;;;8.73;100.00;97457.72;5004079;28;20379;-75
2023/01/09 11:00:23;;;;;;;1.85;0.50;;;;;;;8.95;100.00;97468.88;5004901;28;20025;-75
2023/01/09 11:02:50;;;;;;;4.20;0.40;;;;;;;9.15;100.00;97471.34;5010448;28;20022;-78
2023/01/09 11:05:21;;;;;;;3.15;0.50;;;;;;;9.09;100.00;97497.38;5014856;28;20030;-76
2023/01/09 11:07:52;;;;;;;4.28;0.30;;;;;;;9.12;100.00;97504.19;5005714;28;20025;-75
2023/01/09 11:10:18;;;;;;;3.13;0.85;;;;;;;9.09;100.00;97475.78;5013165;28;20026;-75
2023/01/09 11:12:43;;;;;;;1.58;0.30;;;;;;;9.08;100.00;97487.59;5007815;28;20022;-75
2023/01/09 11:15:14;;;;;;;2.83;0.40;;;;;;;9.08;100.00;97493.00;4990199;28;20501;-75
2023/01/09 11:17:40;;;;;;;1.73;0.25;;;;;;;9.04;100.00;97499.06;5017499;28;20059;-74
2023/01/09 11:20:21;;;;;;;4.00;0.40;;;;;;;9.02;100.00;97490.41;5013556;28;20038;-75
2023/01/09 11:22:49;;;;;;;2.75;0.50;;;;;;;8.74;100.00;97489.84;5000325;28;20041;-75
2023/01/09 11:25:17;;;;;;;1.58;0.30;;;;;;;8.60;100.00;97492.94;5004626;28;20373;-75
2023/01/09 11:27:43;;;;;;;1.52;0.30;;;;;;;8.78;100.00;97482.16;5013188;28;20026;-75
2023/01/09 11:30:26;;;;;;;5.07;1.50;;;;;;;8.59;100.00;97464.31;5010064;28;20069;-75
2023/01/09 11:32:53;;;;;;;5.05;0.50;;;;;;;8.77;100.00;97493.97;4989585;28;20071;-75
2023/01/09 11:35:26;;;;;;;4.70;0.50;;;;;;;8.91;100.00;97484.69;5001176;28;20037;-75
2023/01/09 11:38:11;;;;;;;5.78;0.50;;;;;;;8.71;100.00;97486.78;5004169;28;20113;-77
2023/01/09 11:40:48;;;;;;;1.98;0.52;;;;;;;8.87;100.00;97478.09;4982669;28;20086;-74
2023/01/09 11:43:31;;;;;;;5.82;1.13;;;;;;;8.90;100.00;97471.44;5006115;28;20475;-79
2023/01/09 11:45:58;;;;;;;3.63;0.50;;;;;;;8.90;100.00;97483.03;4994440;28;20034;-79
2023/01/09 11:48:39;;;;;;;4.72;0.40;;;;;;;9.04;100.00;97488.28;5002479;28;20395;-78
2023/01/09 11:51:33;;;;;;;6.03;0.50;;;;;;;8.97;100.00;97481.09;4987872;28;20036;-80
2023/01/09 11:54:04;;;;;;;4.03;0.50;;;;;;;8.76;100.00;97476.97;5001470;28;20046;-77
2023/01/09 11:56:29;;;;;;;4.15;0.35;;;;;;;9.10;100.00;97468.50;5007608;28;20026;-72
2023/01/09 11:58:55;;;;;;;6.15;0.47;;;;;;;9.24;100.00;97442.97;5007309;28;20053;-72